Old Res Weather

Lexington, Massachusetts, USA

39°F
12/3/2020 11:56pm 
  • Lexington Conditions: Clear
  • Temperature: 39.0°F / 3.9°CColder 1.6°F than last hour.
  • Dew Point: 27.9°FDecreased 0.3°Fsince last hour.
  • Relative Humidity: 64%Increased 3.0% since last hour.
  • Wind: Calm, 10-min avg: Calm, gust: 3 mph
  • Barometer: 30.12 in Steady
  • Visibility: 10 miles
  • Rain Today: 0.00 in
  • UV Index: $VPuv None
  •   

Nearby Reports - Official Weather Stations - Current Conditions

Data from the National Weather Service

KBED - Bedford, Massachusetts, USA


Distance from station: NW 4mi, 6km

Updated Thu Dec 3, 2020 10:51pm EST

Clear

Clear

Wind from SSW

Wind:

SSW 9 mph, 15 km/h

Temperature: 43°F (6°C)

Wind Chill: 38°F (3°C)

Dew Point: 25°F (-4°C)

Humidity: 49%

Barometer: 30.08 in (1018.6 hPa)

Clouds: Clear

Visibility: 10 miles (16 km)


2020/12/04 03:51 KBED 040351Z 20008KT 10SM CLR 06/M04 A3008 RMK AO2 SLP200 T00561044

KBOS - Boston, Massachusetts, USA


Distance from station: ESE 13mi, 20km

Updated Thu Dec 3, 2020 10:54pm EST

Overcast

Overcast

Wind from SW

Wind:

SW 14 mph, 22 km/h

Temperature: 43°F (6°C)

Wind Chill: 36°F (2°C)

Dew Point: 27°F (-3°C)

Humidity: 53%

Barometer: 30.10 in (1019.3 hPa)

Clouds: Overcast

Visibility: 10 miles (16 km)

Cloud details: Overcast 14000 ft


2020/12/04 03:54 KBOS 040354Z 22012KT 10SM OVC140 06/M03 A3010 RMK AO2 SLP192 T00611033

KOWD - Norwood, Massachusetts, USA


Distance from station: SSE 18mi, 29km

Updated Thu Dec 3, 2020 10:53pm EST

Few Clouds

Few Clouds

Wind from SSW

Wind:

SSW 5 mph, 7 km/h

Temperature: 45°F (7°C)

Wind Chill: 42°F (6°C)

Dew Point: 28°F (-2°C)

Humidity: 53%

Barometer: 30.11 in (1019.6 hPa)

Clouds: Few Clouds

Visibility: 10 miles (16 km)

Cloud details: Few Clouds 12000 ft


2020/12/04 03:53 KOWD 040353Z AUTO 21004KT 10SM FEW120 07/M02 A3011 RMK AO2 SLP195 T00671022

KBVY - Beverly, Massachusetts, USA


Distance from station: ENE 20mi, 32km

Updated Thu Dec 3, 2020 10:53pm EST

Clear

Clear

Wind from SSW

Wind:

SSW 8 mph, 13 km/h

Temperature: 43°F (6°C)

Wind Chill: 38°F (3°C)

Dew Point: 27°F (-3°C)

Humidity: 53%

Barometer: 30.08 in (1018.6 hPa)

Clouds: Clear

Visibility: 10 miles (16 km)


2020/12/04 03:53 KBVY 040353Z AUTO 21007KT 10SM CLR 06/M03 A3008 RMK AO2 SLP184 T00611033

KLWM - Lawrence, Massachusetts, USA


Distance from station: NNE 20mi, 33km

Updated Thu Dec 3, 2020 10:54pm EST

Mostly cloudy

Mostly cloudy

Wind from SSW

Wind:

SSW 6 mph, 9 km/h

Temperature: 43°F (6°C)

Wind Chill: 39°F (4°C)

Dew Point: 25°F (-4°C)

Humidity: 49%

Barometer: 30.09 in (1019 hPa)

Clouds: Mostly cloudy

Visibility: 10 miles (16 km)

Cloud details: Mostly cloudy 12000 ft


2020/12/04 03:54 KLWM 040354Z AUTO 20005KT 10SM BKN120 06/M04 A3009 RMK AO2 SLP188 T00561039

KFIT - Fitchburg, Massachusetts, USA


Distance from station: WNW 27mi, 43km

Updated Thu Dec 3, 2020 10:52pm EST

Partly cloudy

Partly cloudy

Wind from SSW

Wind:

SSW 3 mph, 6 km/h

Temperature: 45°F (7°C)

Dew Point: 19°F (-7°C)

Humidity: 37%

Barometer: 30.07 in (1018.3 hPa)

Clouds: Partly cloudy

Visibility: 10 miles (16 km)

Cloud details: Partly cloudy 12000 ft


2020/12/04 03:52 KFIT 040352Z AUTO 21003KT 10SM SCT120 07/M07 A3007 RMK AO2 SLP184 T00671072

KASH - Nashua/Boire Fld, New Hampshire, USA


Distance from station: NNW 28mi, 45km

Updated Thu Dec 3, 2020 10:56pm EST

Partly cloudy

Partly cloudy

Wind from calm

Wind:

Calm

Temperature: 37°F (3°C)

Dew Point: 25°F (-4°C)

Humidity: 60%

Barometer: 30.07 in (1018.3 hPa)

Clouds: Partly cloudy

Visibility: 10 miles (16 km)

Cloud details: Partly cloudy 12000 ft


2020/12/04 03:56 KASH 040356Z AUTO 00000KT 10SM SCT120 03/M04 A3007 RMK AO2 SLP188 T00331039

KORH - Worcester, Massachusetts, USA


Distance from station: WSW 34mi, 54km

Updated Thu Dec 3, 2020 10:54pm EST

Clear

Clear

Wind from SSW

Wind:

SSW 6 mph, 9 km/h

Temperature: 37°F (3°C)

Wind Chill: 32°F (0°C)

Dew Point: 19°F (-7°C)

Humidity: 48%

Barometer: 30.06 in (1017.9 hPa)

Clouds: Clear

Visibility: 10 miles (16 km)


2020/12/04 03:54 KORH 040354Z AUTO 21005KT 10SM CLR 03/M07 A3006 RMK AO2 SLP189 T00281067

KMHT - Manchester, New Hampshire, USA


Distance from station: NNW 36mi, 57km

Updated Thu Dec 3, 2020 10:53pm EST

Mostly cloudy

Mostly cloudy

Wind from SSW

Wind:

SSW 6 mph, 9 km/h

Temperature: 43°F (6°C)

Wind Chill: 39°F (4°C)

Dew Point: 23°F (-5°C)

Humidity: 46%

Barometer: 30.04 in (1017.3 hPa)

Clouds: Mostly cloudy

Visibility: 10 miles (16 km)

Cloud details: Mostly cloudy 12000 ft
Mostly cloudy 25000 ft


2020/12/04 03:53 KMHT 040353Z 20005KT 10SM BKN120 BKN250 06/M05 A3004 RMK AO2 SLP189 T00561050

KGHG - Marshfield, Massachusetts, USA


Distance from station: SE 38mi, 60km

Updated Thu Dec 3, 2020 11:35pm EST

Overcast

Overcast

Wind from SW

Wind:

SW 7 mph, 11 km/h

Temperature: 45°F (7°C)

Wind Chill: 41°F (5°C)

Dew Point: 32°F (0°C)

Humidity: 61%

Barometer: 30.10 in (1019.3 hPa)

Clouds: Overcast

Visibility: 10 miles (16 km)

Cloud details: Partly cloudy 9500 ft
Overcast 11000 ft


2020/12/04 04:35 KGHG 040435Z AUTO 23006KT 10SM SCT095 OVC110 07/M00 A3010 RMK AO2

KSFZ - Pawtucket, Rhode Island, USA


Distance from station: SSW 38mi, 61km

Updated Thu Dec 3, 2020 10:56pm EST

Few Clouds

Few Clouds

Wind from varies

Wind:

varies 5 mph, 7 km/h

Temperature: 41°F (5°C)

Wind Chill: 38°F (3°C)

Dew Point: 28°F (-2°C)

Humidity: 61%

Barometer: 30.10 in (1019.3 hPa)

Clouds: Few Clouds

Visibility: 10 miles (16 km)

Cloud details: Few Clouds 10000 ft


2020/12/04 03:56 KSFZ 040356Z AUTO VRB04KT 10SM FEW100 05/M02 A3010 RMK AO2 SLP142 T00501017

KTAN - Taunton, Massachusetts, USA


Distance from station: SSE 40mi, 64km

Updated Thu Dec 3, 2020 10:52pm EST

Mostly cloudy

Mostly cloudy

Wind from SW

Wind:

SW 7 mph, 11 km/h

Temperature: 46°F (8°C)

Wind Chill: 42°F (6°C)

Dew Point: 30°F (-1°C)

Humidity: 53%

Barometer: 30.12 in (1020 hPa)

Clouds: Mostly cloudy

Visibility: 10 miles (16 km)

Cloud details: Mostly cloudy 11000 ft


2020/12/04 03:52 KTAN 040352Z AUTO 22006KT 10SM BKN110 08/M01 A3012 RMK AO2 SLP199 T00831006 $

KPYM - Plymouth, Massachusetts, USA


Distance from station: SE 44mi, 71km

Updated Thu Dec 3, 2020 10:52pm EST

Clear

Clear

Wind from SSW

Wind:

SSW 8 mph, 13 km/h

Temperature: 43°F (6°C)

Wind Chill: 38°F (3°C)

Dew Point: 30°F (-1°C)

Humidity: 61%

Barometer: 30.12 in (1020 hPa)

Clouds: Clear

Visibility: 10 miles (16 km)


2020/12/04 03:52 KPYM 040352Z AUTO 21007KT 10SM CLR 06/M01 A3012 RMK AO2 SLP199 T00611011

KAFN - Jaffrey, New Hampshire, USA


Distance from station: WNW 46mi, 74km

Updated Thu Dec 3, 2020 10:52pm EST

Mostly cloudy

Mostly cloudy

Wind from calm

Wind:

Calm

Temperature: 34°F (1°C)

Dew Point: 25°F (-4°C)

Humidity: 70%

Barometer: 30.04 in (1017.3 hPa)

Clouds: Mostly cloudy

Visibility: 10 miles (16 km)

Cloud details: Mostly cloudy 10000 ft


2020/12/04 03:52 KAFN 040352Z AUTO 00000KT 10SM BKN100 01/M04 A3004 RMK AO2 SLP187 T00061039

KPSM - Portsmouth/Pease, New Hampshire, USA


Distance from station: NNE 49mi, 78km

Updated Thu Dec 3, 2020 10:56pm EST

Overcast

Overcast

Wind from SSW

Wind:

SSW 3 mph, 6 km/h

Temperature: 41°F (5°C)

Dew Point: 19°F (-7°C)

Humidity: 42%

Barometer: 30.04 in (1017.3 hPa)

Clouds: Overcast

Visibility: 10 miles (16 km)

Cloud details: Mostly cloudy 12000 ft
Overcast 25000 ft


2020/12/04 03:56 KPSM 040356Z 20003KT 10SM BKN120 OVC250 05/M07 A3004 RMK AO2A SLP176 T00531066

KPVD - Providence/Green, Rhode Island, USA


Distance from station: S 51mi, 81km

Updated Thu Dec 3, 2020 10:51pm EST

Overcast

Overcast

Wind from S

Wind:

S 7 mph, 11 km/h

Temperature: 43°F (6°C)

Wind Chill: 39°F (4°C)

Dew Point: 30°F (-1°C)

Humidity: 61%

Barometer: 30.13 in (1020.3 hPa)

Clouds: Overcast

Visibility: 10 miles (16 km)

Cloud details: Mostly cloudy 11000 ft
Overcast 13000 ft


2020/12/04 03:51 KPVD 040351Z 18006KT 10SM BKN110 OVC130 06/M01 A3013 RMK AO2 SLP201 T00611006

KORE - Orange, Massachusetts, USA


Distance from station: W 54mi, 86km

Updated Thu Dec 3, 2020 10:52pm EST

Mostly cloudy

Mostly cloudy

Wind from calm

Wind:

Calm

Temperature: 30°F (-1°C)

Dew Point: 27°F (-3°C)

Humidity: 86%

Barometer: 30.06 in (1017.9 hPa)

Clouds: Mostly cloudy

Visibility: 10 miles (16 km)

Cloud details: Mostly cloudy 10000 ft


2020/12/04 03:52 KORE 040352Z AUTO 00000KT 10SM BKN100 M01/M03 A3006 RMK AO2 SLP186 T10061028

KEWB - New Bedford, Massachusetts, USA


Distance from station: SSE 54mi, 87km

Updated Thu Dec 3, 2020 10:53pm EST

Clear

Clear

Wind from SW

Wind:

SW 7 mph, 11 km/h

Temperature: 46°F (8°C)

Wind Chill: 42°F (6°C)

Dew Point: 30°F (-1°C)

Humidity: 53%

Barometer: 30.12 in (1020 hPa)

Clouds: Clear

Visibility: 10 miles (16 km)


2020/12/04 03:53 KEWB 040353Z AUTO 23006KT 10SM CLR 08/M01 A3012 RMK AO2 SLP200 T00831011

KCON - Concord, New Hampshire, USA


Distance from station: NNW 54mi, 88km

Updated Thu Dec 3, 2020 10:51pm EST

Mostly cloudy

Mostly cloudy

Wind from S

Wind:

S 7 mph, 11 km/h

Temperature: 36°F (2°C)

Wind Chill: 30°F (-1°C)

Dew Point: 27°F (-3°C)

Humidity: 70%

Barometer: 30.04 in (1017.3 hPa)

Clouds: Mostly cloudy

Visibility: 10 miles (16 km)

Cloud details: Mostly cloudy 11000 ft


2020/12/04 03:51 KCON 040351Z AUTO 17006KT 10SM BKN110 02/M03 A3004 RMK AO2 SLP176 T00221033

KMWN - Mount Washington, New Hampshire, USA


Distance from station: N 127mi, 204km

Updated Thu Dec 3, 2020 10:55pm EST

Partly cloudy

Partly cloudy

Wind from W

Wind:

W 52 mph, 83 km/h,
Gust: 62 mph, 100 km/h

Temperature: 18°F (-8°C)

Wind Chill: -6°F (-21°C)

Dew Point: 1°F (-17°C)

Humidity: 49%

Clouds: Partly cloudy

Visibility: 80 miles (128 km)

Cloud details: Few Clouds 2000 ft
Partly cloudy 6000 ft
Partly cloudy 18000 ft


2020/12/04 03:55 KMWN 040355Z 27045G54KT 80SM FEW020 SCT060 SCT180 M08/M17 RMK